Hartford, Connecticut
Current Conditions -  °F | °C
As of 3:53 AM on Monday 20 Oct 2014 (Local Time) from KHFD Reporting Station
Clear Clear  
Wind Chill:   Ceiling: Unl
Heat Index:   Visibility: 10mi
Dew Point: -2°   Wind: 3mph
Humidity: 70%   Direction: 210°SSW
Pressure: 30.04"   Gusts: NA
Location:  41.76°N, 72.67°W
Report Text: KHFD 200753Z AUTO 21003KT 10SM CLR 03/M02 A3004 RMK AO2 SLP172 T00281022
Loading
Personal Weather Stations






























Interactive Weather Map New forecast layout! Learn more

10-Day Weather Forecast

Advertisements
Track Severe Weather on mobile